createdAt,value
2023-03-11T00:02:37.347Z,50.71
2023-03-11T00:07:38.610Z,50.56
2023-03-11T00:12:39.935Z,50.65
2023-03-11T00:17:41.238Z,50.60
2023-03-11T00:22:42.522Z,50.54
2023-03-11T00:27:43.820Z,50.75
2023-03-11T00:32:45.213Z,50.86
2023-03-11T00:37:46.534Z,50.74
2023-03-11T00:42:47.788Z,50.86
2023-03-11T00:47:49.048Z,51.07
2023-03-11T00:52:50.356Z,51.23
2023-03-11T00:57:51.653Z,51.07
2023-03-11T01:02:52.927Z,51.41
2023-03-11T01:07:54.202Z,51.23
2023-03-11T01:12:55.596Z,51.25
2023-03-11T01:17:56.860Z,51.89
2023-03-11T01:22:58.144Z,51.78
2023-03-11T01:27:59.434Z,51.46
2023-03-11T01:33:00.691Z,51.58
2023-03-11T01:38:01.953Z,51.56
2023-03-11T01:43:03.195Z,51.69
2023-03-11T01:48:04.522Z,51.47
2023-03-11T01:53:06.418Z,51.59
2023-03-11T01:58:07.782Z,51.96
2023-03-11T02:03:09.064Z,51.92
2023-03-11T02:08:10.362Z,52.04
2023-03-11T02:13:11.653Z,52.15
2023-03-11T02:18:12.917Z,52.51
2023-03-11T02:23:14.299Z,52.25
2023-03-11T02:28:15.737Z,52.14
2023-03-11T02:33:17.021Z,52.53
2023-03-11T02:38:18.266Z,52.28
2023-03-11T02:43:19.511Z,52.76
2023-03-11T02:48:20.745Z,52.49
2023-03-11T02:53:21.982Z,52.43
2023-03-11T02:58:23.260Z,52.52
2023-03-11T03:03:24.559Z,51.88
2023-03-11T03:08:25.828Z,52.15
2023-03-11T03:13:27.108Z,51.90
2023-03-11T03:18:28.428Z,51.53
2023-03-11T03:23:29.734Z,51.81
2023-03-11T03:28:31.072Z,51.58
2023-03-11T03:33:32.318Z,51.67
2023-03-11T03:38:33.725Z,51.75
2023-03-11T03:43:35.018Z,51.49
2023-03-11T03:48:36.256Z,51.43
2023-03-11T03:53:37.553Z,51.41
2023-03-11T03:58:38.887Z,51.25
2023-03-11T04:03:40.217Z,50.86
2023-03-11T04:08:41.504Z,51.03
2023-03-11T04:13:42.770Z,51.10
2023-03-11T04:18:44.035Z,51.22
2023-03-11T04:23:45.296Z,51.11
2023-03-11T04:28:46.586Z,51.24
2023-03-11T04:33:47.930Z,51.20
2023-03-11T04:38:49.192Z,50.66
2023-03-11T04:43:50.578Z,50.97
2023-03-11T04:48:51.874Z,51.20
2023-03-11T04:53:53.117Z,50.91
2023-03-11T04:58:54.335Z,50.94
2023-03-11T05:03:55.597Z,50.94
2023-03-11T05:08:56.920Z,50.67
2023-03-11T05:13:58.166Z,50.82
2023-03-11T05:18:59.424Z,50.79
2023-03-11T05:24:00.718Z,51.02
2023-03-11T05:29:01.943Z,50.95
2023-03-11T05:34:03.221Z,51.26
2023-03-11T05:39:04.616Z,51.25
2023-03-11T05:44:05.968Z,52.36
2023-03-11T05:49:07.350Z,52.08
2023-03-11T05:54:08.739Z,52.25
2023-03-11T05:59:10.000Z,52.47
2023-03-11T06:04:11.452Z,52.10
2023-03-11T06:09:12.933Z,52.52
2023-03-11T06:14:14.255Z,53.07
2023-03-11T06:19:15.678Z,53.31
2023-03-11T06:24:17.009Z,52.61
2023-03-11T06:29:18.389Z,52.66
2023-03-11T06:34:19.670Z,53.49
2023-03-11T06:39:20.954Z,53.24
2023-03-11T06:44:22.177Z,52.94
2023-03-11T06:49:23.441Z,52.79
2023-03-11T06:54:24.781Z,52.95
2023-03-11T06:59:26.069Z,52.90
2023-03-11T07:04:27.529Z,52.61
2023-03-11T07:09:28.854Z,52.94
2023-03-11T07:14:30.097Z,52.66
2023-03-11T07:19:31.414Z,52.69
2023-03-11T07:24:32.691Z,52.92
2023-03-11T07:29:34.028Z,53.31
2023-03-11T07:34:35.326Z,53.02
2023-03-11T07:39:36.566Z,52.81
2023-03-11T07:44:37.895Z,52.87
2023-03-11T07:49:39.321Z,52.87
2023-03-11T07:54:40.621Z,52.53
2023-03-11T07:59:41.925Z,52.28
2023-03-11T08:04:43.925Z,52.03
2023-03-11T08:09:45.498Z,52.03
2023-03-11T08:14:49.553Z,51.60
2023-03-11T08:19:51.887Z,52.18
2023-03-11T08:24:53.623Z,52.44
2023-03-11T08:29:55.359Z,51.46
2023-03-11T08:34:56.670Z,51.45
2023-03-11T08:39:57.972Z,52.99
2023-03-11T08:44:59.264Z,53.13
2023-03-11T08:50:00.680Z,53.03
2023-03-11T08:55:02.038Z,51.94
2023-03-11T09:00:03.304Z,51.30
2023-03-11T09:05:04.581Z,51.15
2023-03-11T09:10:05.875Z,50.52
2023-03-11T09:15:07.156Z,50.60
2023-03-11T09:20:08.554Z,50.69
2023-03-11T09:25:10.208Z,50.51
2023-03-11T09:30:11.491Z,50.36
2023-03-11T09:35:12.828Z,50.45
2023-03-11T09:40:14.306Z,50.00
2023-03-11T09:45:15.708Z,49.58
2023-03-11T09:50:17.067Z,49.32
2023-03-11T09:55:18.360Z,50.55
2023-03-11T10:00:19.648Z,51.72
2023-03-11T10:05:20.893Z,41.49
2023-03-11T10:10:22.262Z,40.07
2023-03-11T10:15:23.598Z,39.85
2023-03-11T10:20:24.965Z,39.06
2023-03-11T10:25:26.241Z,38.69
2023-03-11T10:30:27.571Z,40.00
2023-03-11T10:35:28.944Z,39.13
2023-03-11T10:40:30.256Z,41.21
2023-03-11T10:45:31.623Z,43.66
2023-03-11T10:50:34.343Z,45.09
2023-03-11T10:55:37.365Z,45.54
2023-03-11T11:00:38.676Z,45.79
2023-03-11T11:05:39.954Z,46.42
2023-03-11T11:10:41.262Z,47.04
2023-03-11T11:15:42.525Z,48.03
2023-03-11T11:20:43.894Z,48.31
2023-03-11T11:25:45.198Z,47.86
2023-03-11T11:30:46.530Z,49.18
2023-03-11T11:35:47.876Z,48.89
2023-03-11T11:40:49.159Z,49.18
2023-03-11T11:45:50.478Z,48.82
2023-03-11T11:50:51.904Z,49.80
2023-03-11T11:55:53.181Z,50.59
2023-03-11T12:00:54.471Z,50.21
2023-03-11T12:05:57.989Z,51.77
2023-03-11T12:10:59.460Z,51.06
2023-03-11T12:16:01.033Z,50.91
2023-03-11T12:21:02.402Z,51.12
2023-03-11T12:26:03.684Z,51.00
2023-03-11T12:31:05.080Z,50.79
2023-03-11T12:36:06.466Z,51.79
2023-03-11T12:41:07.834Z,50.50
2023-03-11T12:46:09.113Z,50.54
2023-03-11T12:51:10.390Z,50.91
2023-03-11T12:56:11.833Z,52.08
2023-03-11T13:01:13.104Z,51.66
2023-03-11T13:06:14.387Z,51.73
2023-03-11T13:11:15.703Z,51.91
2023-03-11T13:16:17.085Z,52.19
2023-03-11T13:21:18.426Z,52.23
2023-03-11T13:26:19.711Z,52.13
2023-03-11T13:31:21.187Z,53.74
2023-03-11T13:36:22.583Z,52.35
2023-03-11T13:41:23.922Z,52.95
2023-03-11T13:46:25.215Z,53.67
2023-03-11T13:51:26.573Z,52.97
2023-03-11T13:56:27.807Z,55.06
2023-03-11T14:01:29.278Z,54.87
2023-03-11T14:06:30.645Z,54.62
2023-03-11T14:11:32.023Z,54.42
2023-03-11T14:16:33.368Z,55.91
2023-03-11T14:21:34.639Z,54.65
2023-03-11T14:26:35.918Z,54.74
2023-03-11T14:31:37.348Z,55.00
2023-03-11T14:36:38.668Z,54.58
2023-03-11T14:41:39.983Z,54.13
2023-03-11T14:46:42.748Z,54.30
2023-03-11T14:51:46.207Z,54.47
2023-03-11T14:56:47.493Z,54.17
2023-03-11T15:01:49.057Z,53.96
2023-03-11T15:06:50.337Z,53.92
2023-03-11T15:11:51.640Z,53.78
2023-03-11T15:16:53.053Z,54.22
2023-03-11T15:21:54.612Z,54.47
2023-03-11T15:26:55.955Z,53.85
2023-03-11T15:31:57.312Z,54.04
2023-03-11T15:36:58.655Z,54.31
2023-03-11T15:41:59.925Z,53.96
2023-03-11T15:47:01.233Z,53.80
2023-03-11T15:52:02.509Z,53.72
2023-03-11T15:57:03.861Z,53.58
2023-03-11T16:02:05.160Z,54.08
2023-03-11T16:07:08.718Z,53.89
2023-03-11T16:12:10.189Z,53.71
2023-03-11T16:17:11.484Z,53.62
2023-03-11T16:22:12.722Z,53.56
2023-03-11T16:27:14.023Z,53.62
2023-03-11T16:32:15.389Z,53.22
2023-03-11T16:37:16.708Z,53.15
2023-03-11T16:42:17.958Z,52.94
2023-03-11T16:47:19.247Z,53.18
2023-03-11T16:52:20.651Z,53.25
2023-03-11T16:57:22.064Z,53.04
2023-03-11T17:02:24.600Z,52.98
2023-03-11T17:07:26.094Z,52.87
2023-03-11T17:12:27.510Z,52.83
2023-03-11T17:17:28.827Z,52.54
2023-03-11T17:22:30.141Z,52.74
2023-03-11T17:27:31.453Z,52.85
2023-03-11T17:32:32.871Z,52.85
2023-03-11T17:37:34.202Z,52.81
2023-03-11T17:42:35.570Z,52.69
2023-03-11T17:47:36.966Z,52.40
2023-03-11T17:52:38.249Z,52.50
2023-03-11T17:57:45.500Z,52.26
2023-03-11T18:02:47.381Z,52.47
2023-03-11T18:07:48.720Z,52.30
2023-03-11T18:12:50.074Z,52.12
2023-03-11T18:17:51.345Z,52.35
2023-03-11T18:22:52.711Z,52.12
2023-03-11T18:27:53.967Z,52.49
2023-03-11T18:32:55.410Z,52.82
2023-03-11T18:37:56.771Z,53.28
2023-03-11T18:42:58.252Z,52.81
2023-03-11T18:47:59.566Z,52.93
2023-03-11T18:53:00.934Z,52.40
2023-03-11T18:58:02.208Z,52.87
2023-03-11T19:03:03.598Z,52.71
2023-03-11T19:08:04.929Z,52.04
2023-03-11T19:13:06.341Z,51.92
2023-03-11T19:18:07.688Z,51.64
2023-03-11T19:23:09.001Z,51.71
2023-03-11T19:28:10.267Z,50.97
2023-03-11T19:33:11.690Z,51.24
2023-03-11T19:38:12.991Z,51.48
2023-03-11T19:43:14.427Z,51.69
2023-03-11T19:48:15.773Z,53.24
2023-03-11T19:53:17.166Z,52.51
2023-03-11T19:58:18.514Z,52.61
2023-03-11T20:03:19.801Z,52.50
2023-03-11T20:08:21.114Z,52.35
2023-03-11T20:13:22.531Z,52.08
2023-03-11T20:18:23.866Z,52.44
2023-03-11T20:23:25.442Z,52.69
2023-03-11T20:28:26.860Z,52.77
2023-03-11T20:33:28.343Z,52.54
2023-03-11T20:38:29.738Z,52.55
2023-03-11T20:43:31.185Z,52.30
2023-03-11T20:48:32.466Z,52.47
2023-03-11T20:53:33.842Z,52.65
2023-03-11T20:58:35.316Z,53.42
2023-03-11T21:03:36.692Z,53.93
2023-03-11T21:08:38.189Z,53.67
2023-03-11T21:13:39.614Z,53.44
2023-03-11T21:18:40.940Z,53.50
2023-03-11T21:23:42.393Z,53.54
2023-03-11T21:28:43.769Z,53.71
2023-03-11T21:33:45.189Z,53.51
2023-03-11T21:38:46.736Z,53.40
2023-03-11T21:43:48.131Z,53.23
2023-03-11T21:48:49.596Z,53.16
2023-03-11T21:53:51.131Z,53.60
2023-03-11T21:58:52.557Z,53.49
2023-03-11T22:03:54.076Z,53.33
2023-03-11T22:08:55.586Z,53.44
2023-03-11T22:13:56.984Z,53.12
2023-03-11T22:18:58.286Z,53.08
2023-03-11T22:23:59.690Z,53.07
2023-03-11T22:29:03.735Z,52.91
2023-03-11T22:34:05.551Z,52.92
2023-03-11T22:39:06.852Z,52.44
2023-03-11T22:44:08.242Z,52.31
2023-03-11T22:49:09.595Z,52.52
2023-03-11T22:54:11.059Z,51.83
2023-03-11T22:59:12.391Z,52.10
2023-03-11T23:04:13.741Z,52.00
2023-03-11T23:09:14.987Z,51.72
2023-03-11T23:14:16.326Z,51.86
2023-03-11T23:19:17.689Z,51.35
2023-03-11T23:24:19.058Z,51.45
2023-03-11T23:29:20.369Z,51.05
2023-03-11T23:34:21.685Z,50.97
2023-03-11T23:39:22.976Z,51.07
2023-03-11T23:44:24.292Z,51.01
2023-03-11T23:49:25.667Z,50.74
2023-03-11T23:54:26.977Z,50.41
2023-03-11T23:59:28.293Z,50.08
